Time;durP1;ratioP1;P1;durP2;ratioP2;P2;SDS_P1;SDS_P2;PMS_P1;PMS_P2;Temp;Humidity;BMP_temperature;BMP_pressure;BME280_temperature;BME280_humidity;BME280_pressure;Samples;Min_cycle;Max_cycle;Signal;HPM_P1;HPM_P2
2022/09/10 00:00:53;;;;;;;8.50;2.57;;;16.00;99.90;;;;;;5028008;28;20488;-68
2022/09/10 00:03:21;;;;;;;13.13;2.87;;;;;;;;;;5030234;28;20520;-68
2022/09/10 00:05:48;;;;;;;10.17;1.73;;;16.10;99.90;;;;;;5031485;28;20913;-66
2022/09/10 00:08:16;;;;;;;9.00;2.73;;;16.10;99.90;;;;;;5029919;28;20488;-64
2022/09/10 00:10:45;;;;;;;10.20;1.90;;;;;;;;;;5031428;28;21003;-67
2022/09/10 00:13:13;;;;;;;15.37;2.57;;;16.10;99.90;;;;;;5051049;28;20503;-65
2022/09/10 00:15:40;;;;;;;7.63;2.60;;;16.20;99.90;;;;;;5041176;28;20482;-66
2022/09/10 00:18:08;;;;;;;13.60;1.87;;;16.10;99.90;;;;;;5047548;28;20479;-67
2022/09/10 00:20:42;;;;;;;8.40;2.90;;;;;;;;;;5027900;28;20499;-68
2022/09/10 00:23:09;;;;;;;8.20;2.60;;;;;;;;;;5001836;28;20484;-69
2022/09/10 00:25:37;;;;;;;9.00;3.70;;;16.00;99.90;;;;;;5022778;28;20495;-62
2022/09/10 00:28:06;;;;;;;27.20;5.93;;;;;;;;;;5027423;28;20496;-72
2022/09/10 00:30:32;;;;;;;24.77;7.80;;;16.00;99.90;;;;;;5015199;28;20475;-69
2022/09/10 00:32:59;;;;;;;14.53;1.70;;;15.90;99.90;;;;;;5015157;28;20469;-65
2022/09/10 00:35:26;;;;;;;5.73;1.97;;;15.80;99.90;;;;;;5018264;28;20743;-65
2022/09/10 00:37:54;;;;;;;15.70;1.70;;;15.90;99.90;;;;;;5012063;28;20863;-67
2022/09/10 00:40:20;;;;;;;6.83;1.53;;;15.80;99.90;;;;;;5028353;28;20502;-67
2022/09/10 00:42:47;;;;;;;7.83;1.63;;;;;;;;;;5024087;28;20661;-68
2022/09/10 00:45:20;;;;;;;22.43;2.20;;;15.70;99.90;;;;;;5017854;28;20488;-66
2022/09/10 00:47:49;;;;;;;6.53;1.20;;;15.70;99.90;;;;;;5023951;28;20857;-70
2022/09/10 00:50:19;;;;;;;5.20;1.57;;;;;;;;;;5021316;28;20546;-69
2022/09/10 00:52:47;;;;;;;14.00;2.10;;;15.60;99.90;;;;;;5030154;28;21084;-71
2022/09/10 00:55:16;;;;;;;11.97;1.73;;;15.70;99.90;;;;;;5019889;28;20568;-66
2022/09/10 00:57:44;;;;;;;7.90;1.57;;;15.70;99.90;;;;;;5023015;28;20485;-64
2022/09/10 01:00:14;;;;;;;15.27;1.90;;;15.60;99.90;;;;;;5017020;28;20535;-64
2022/09/10 01:02:41;;;;;;;5.93;1.40;;;15.70;99.90;;;;;;5012180;28;20523;-69
2022/09/10 01:05:08;;;;;;;9.23;2.00;;;;;;;;;;5025661;28;20476;-63
2022/09/10 01:07:36;;;;;;;9.17;2.27;;;15.70;99.90;;;;;;5021154;28;20568;-67
2022/09/10 01:10:05;;;;;;;10.53;2.87;;;;;;;;;;5014990;28;20499;-63
2022/09/10 01:12:58;;;;;;;23.20;3.10;;;15.80;99.90;;;;;;5026361;28;21799;-62
2022/09/10 01:15:34;;;;;;;7.33;1.80;;;15.80;99.90;;;;;;5010967;28;20486;-69
2022/09/10 01:18:13;;;;;;;13.80;2.10;;;15.80;99.90;;;;;;5027009;28;21918;-64
2022/09/10 01:21:18;;;;;;;7.70;2.00;;;15.90;99.90;;;;;;5032800;28;20472;-67
2022/09/10 01:24:15;;;;;;;6.90;1.83;;;15.90;99.90;;;;;;5004524;28;20909;-65
2022/09/10 01:27:14;;;;;;;7.37;1.80;;;15.90;99.90;;;;;;5043014;28;20560;-65
2022/09/10 01:29:45;;;;;;;15.17;2.60;;;;;;;;;;5000937;28;20467;-66
2022/09/10 01:32:15;;;;;;;9.00;2.80;;;15.90;99.90;;;;;;5022404;28;21290;-67
2022/09/10 01:34:45;;;;;;;12.27;2.00;;;;;;;;;;5023592;28;20482;-61
2022/09/10 01:37:15;;;;;;;10.43;2.47;;;;;;;;;;5023351;28;20476;-64
2022/09/10 01:39:43;;;;;;;10.67;2.43;;;15.80;99.90;;;;;;5031789;28;21081;-66
2022/09/10 01:42:09;;;;;;;10.63;2.93;;;15.80;99.90;;;;;;5025553;28;20545;-67
2022/09/10 01:44:48;;;;;;;7.50;2.83;;;;;;;;;;5021247;28;21024;-62
2022/09/10 01:47:24;;;;;;;10.60;2.40;;;15.70;99.90;;;;;;5030376;28;21096;-67
2022/09/10 01:50:21;;;;;;;17.57;2.80;;;15.80;99.90;;;;;;5006854;28;20483;-65
2022/09/10 01:53:04;;;;;;;23.67;4.00;;;15.70;99.90;;;;;;4995220;28;20809;-67
2022/09/10 01:55:40;;;;;;;25.03;5.20;;;15.70;99.90;;;;;;5034242;28;20483;-66
2022/09/10 01:58:20;;;;;;;10.37;2.53;;;15.80;99.90;;;;;;5037151;28;20483;-68
2022/09/10 02:00:52;;;;;;;4.63;1.60;;;;;;;;;;5023278;28;20487;-66
2022/09/10 02:03:21;;;;;;;14.90;2.20;;;15.80;99.90;;;;;;5036788;28;20558;-69
2022/09/10 02:05:52;;;;;;;17.57;2.33;;;15.80;99.90;;;;;;5047711;28;20471;-63
2022/09/10 02:08:22;;;;;;;11.43;2.00;;;15.70;99.90;;;;;;5056665;28;20888;-64
2022/09/10 02:10:54;;;;;;;6.33;1.80;;;15.70;99.90;;;;;;5027827;28;20835;-66
2022/09/10 02:13:23;;;;;;;15.53;3.20;;;15.70;99.90;;;;;;5031740;28;20487;-64
2022/09/10 02:15:52;;;;;;;7.60;1.93;;;15.70;99.90;;;;;;5025713;28;20797;-62
2022/09/10 02:18:20;;;;;;;8.20;2.40;;;15.60;99.90;;;;;;5026978;28;20482;-64
2022/09/10 02:20:49;;;;;;;5.73;1.63;;;15.50;99.90;;;;;;5052747;28;20483;-68
2022/09/10 02:23:20;;;;;;;12.50;2.00;;;15.50;99.90;;;;;;5054380;28;20486;-63
2022/09/10 02:25:48;;;;;;;10.23;1.53;;;15.50;99.90;;;;;;5054791;28;20503;-69
2022/09/10 02:28:15;;;;;;;22.47;2.90;;;;;;;;;;5058356;28;20531;-64
2022/09/10 02:30:43;;;;;;;7.50;1.53;;;;;;;;;;5056330;28;20506;-68
2022/09/10 02:33:13;;;;;;;7.93;2.13;;;15.40;99.90;;;;;;5036141;28;20476;-65
2022/09/10 02:35:40;;;;;;;14.93;2.40;;;15.50;99.90;;;;;;5031850;28;20511;-66
2022/09/10 02:38:07;;;;;;;12.20;2.77;;;15.40;99.90;;;;;;5037539;28;20832;-70
2022/09/10 02:40:33;;;;;;;7.30;2.50;;;15.40;99.90;;;;;;5046055;28;20499;-64
2022/09/10 02:43:01;;;;;;;12.53;2.20;;;15.40;99.90;;;;;;5032775;28;20500;-64
2022/09/10 02:45:28;;;;;;;7.20;4.67;;;;;;;;;;5035919;28;20887;-66
2022/09/10 02:47:54;;;;;;;16.13;5.33;;;15.60;99.90;;;;;;5047519;28;20486;-65
2022/09/10 02:50:23;;;;;;;14.37;1.93;;;15.60;99.90;;;;;;5066821;28;20481;-68
2022/09/10 02:52:51;;;;;;;10.73;1.90;;;15.60;99.90;;;;;;5045287;28;21059;-69
2022/09/10 02:55:18;;;;;;;9.60;2.00;;;;;;;;;;5037732;28;20476;-69
2022/09/10 02:57:45;;;;;;;17.20;2.87;;;;;;;;;;5037356;28;20919;-63
2022/09/10 03:00:13;;;;;;;10.63;2.50;;;15.60;99.90;;;;;;5052782;28;20995;-65
2022/09/10 03:02:39;;;;;;;6.13;2.50;;;16.40;99.90;;;;;;5055128;28;20490;-69
2022/09/10 03:05:07;;;;;;;4.53;2.03;;;15.50;99.90;;;;;;5051687;28;20487;-65
2022/09/10 03:07:35;;;;;;;7.47;2.53;;;15.50;99.90;;;;;;5052828;28;20488;-65
2022/09/10 03:10:02;;;;;;;15.03;2.80;;;;;;;;;;5051486;28;20487;-67
2022/09/10 03:12:29;;;;;;;15.10;3.10;;;;;;;;;;5055701;28;20475;-63
2022/09/10 03:14:57;;;;;;;13.90;3.20;;;15.50;99.90;;;;;;5046245;28;20488;-66
2022/09/10 03:17:24;;;;;;;14.00;4.10;;;15.40;99.90;;;;;;5051879;28;20497;-65
2022/09/10 03:19:51;;;;;;;12.27;3.20;;;15.40;99.90;;;;;;5057822;28;20497;-66
2022/09/10 03:22:19;;;;;;;16.80;3.90;;;;;;;;;;5055640;28;20463;-62
2022/09/10 03:24:47;;;;;;;11.03;3.20;;;15.40;99.90;;;;;;5045864;28;20522;-64
2022/09/10 03:27:15;;;;;;;5.17;2.63;;;15.40;99.90;;;;;;5047486;28;20487;-63
2022/09/10 03:29:43;;;;;;;13.20;3.10;;;15.50;99.90;;;;;;5043811;28;20480;-67
2022/09/10 03:32:09;;;;;;;9.73;3.30;;;15.40;99.90;;;;;;5052236;28;20479;-66
2022/09/10 03:34:36;;;;;;;6.70;4.60;;;15.40;99.90;;;;;;5052265;28;20490;-64
2022/09/10 03:37:03;;;;;;;7.80;3.87;;;15.50;99.90;;;;;;5051452;28;20756;-67
2022/09/10 03:39:29;;;;;;;12.63;5.10;;;15.50;99.90;;;;;;5053881;28;20463;-66
2022/09/10 03:41:58;;;;;;;10.23;5.00;;;;;;;;;;5054818;28;20484;-68
2022/09/10 03:44:25;;;;;;;9.60;3.83;;;15.50;99.90;;;;;;5047563;28;20566;-64
2022/09/10 03:46:52;;;;;;;17.50;6.30;;;;;;;;;;5055496;28;20483;-66
2022/09/10 03:49:19;;;;;;;9.63;5.50;;;15.60;99.90;;;;;;5054716;28;20909;-65
2022/09/10 03:51:47;;;;;;;17.97;5.77;;;15.60;99.90;;;;;;5051320;28;20484;-65
2022/09/10 03:54:14;;;;;;;6.77;5.70;;;15.50;99.90;;;;;;5049301;28;21047;-68
2022/09/10 03:56:41;;;;;;;20.10;6.77;;;15.60;99.90;;;;;;5044569;28;20545;-66
2022/09/10 03:59:11;;;;;;;7.50;5.90;;;15.60;99.90;;;;;;5052809;28;20554;-63
2022/09/10 04:01:38;;;;;;;33.03;7.80;;;;;;;;;;5041600;28;20499;-66
2022/09/10 04:04:07;;;;;;;17.87;6.93;;;15.70;99.90;;;;;;5042703;28;20490;-67
2022/09/10 04:06:34;;;;;;;13.43;8.20;;;15.60;99.90;;;;;;5053758;28;21022;-64
2022/09/10 04:09:01;;;;;;;19.17;6.60;;;15.70;99.90;;;;;;5052474;28;20490;-68
2022/09/10 04:11:28;;;;;;;14.50;6.77;;;15.70;99.90;;;;;;5056872;28;20479;-68
2022/09/10 04:13:55;;;;;;;14.97;6.60;;;;;;;;;;5041481;28;20487;-68
2022/09/10 04:16:23;;;;;;;18.67;6.90;;;15.90;99.90;;;;;;5039797;28;20491;-66
2022/09/10 04:18:50;;;;;;;11.10;6.03;;;15.90;99.90;;;;;;5045305;28;20493;-65
2022/09/10 04:21:17;;;;;;;16.70;6.30;;;15.80;99.90;;;;;;5052587;28;20487;-65
2022/09/10 04:23:44;;;;;;;27.27;7.13;;;15.90;99.90;;;;;;5052405;28;20489;-67
2022/09/10 04:26:13;;;;;;;21.97;6.40;;;;;;;;;;5057808;28;20570;-64
2022/09/10 04:28:40;;;;;;;15.03;6.03;;;15.90;99.90;;;;;;5052067;28;20478;-64
2022/09/10 04:31:07;;;;;;;24.37;6.30;;;16.00;99.90;;;;;;5052336;28;20478;-64
2022/09/10 04:33:35;;;;;;;13.20;6.40;;;16.00;99.90;;;;;;5048960;28;21409;-66
2022/09/10 04:36:03;;;;;;;11.87;6.00;;;15.90;99.90;;;;;;5045731;28;20479;-66
2022/09/10 04:38:31;;;;;;;24.83;7.77;;;16.00;99.90;;;;;;5054797;28;20476;-65
2022/09/10 04:40:59;;;;;;;24.83;7.97;;;15.90;99.90;;;;;;5056903;28;20499;-63
2022/09/10 04:43:26;;;;;;;21.43;8.70;;;16.00;99.90;;;;;;5047345;28;20484;-65
2022/09/10 04:45:54;;;;;;;16.23;6.30;;;15.90;99.90;;;;;;5052820;28;20494;-62
2022/09/10 04:48:21;;;;;;;13.53;6.60;;;15.90;99.90;;;;;;5047594;28;20499;-67
2022/09/10 04:50:50;;;;;;;19.80;7.03;;;;;;;;;;5045125;28;20515;-64
2022/09/10 04:53:17;;;;;;;10.93;6.00;;;16.00;99.90;;;;;;5050996;28;20879;-64
2022/09/10 04:55:45;;;;;;;15.30;6.53;;;15.90;99.90;;;;;;5045126;28;20792;-64
2022/09/10 04:58:12;;;;;;;12.80;6.53;;;;;;;;;;5043915;28;20475;-63
2022/09/10 05:00:39;;;;;;;10.33;6.23;;;;;;;;;;5053196;28;20484;-65
2022/09/10 05:03:07;;;;;;;11.83;6.10;;;16.00;99.90;;;;;;5054026;28;20478;-63
2022/09/10 05:05:35;;;;;;;15.53;8.50;;;15.90;99.90;;;;;;5046800;28;20775;-68
2022/09/10 05:08:04;;;;;;;20.10;6.57;;;;;;;;;;5054521;28;20523;-63
2022/09/10 05:10:31;;;;;;;24.37;9.40;;;15.80;99.90;;;;;;5052521;28;20484;-67
2022/09/10 05:12:58;;;;;;;16.00;5.67;;;;;;;;;;5046976;28;20477;-68
2022/09/10 05:15:25;;;;;;;22.47;7.77;;;15.90;99.90;;;;;;5043802;28;20471;-64
2022/09/10 05:17:52;;;;;;;13.27;6.37;;;;;;;;;;5049262;28;20479;-68
2022/09/10 05:20:19;;;;;;;11.73;6.00;;;;;;;;;;5047505;28;20480;-62
2022/09/10 05:22:46;;;;;;;17.93;5.60;;;15.90;99.90;;;;;;5050414;28;20483;-63
2022/09/10 05:25:15;;;;;;;14.37;5.60;;;;;;;;;;5045518;28;20482;-68
2022/09/10 05:27:42;;;;;;;16.03;4.63;;;;;;;;;;5034528;28;20518;-67
2022/09/10 05:30:10;;;;;;;14.90;5.70;;;16.10;99.90;;;;;;5062445;28;20483;-66
2022/09/10 05:32:37;;;;;;;19.47;7.77;;;16.20;99.90;;;;;;5050493;28;20491;-68
2022/09/10 05:35:04;;;;;;;10.10;5.47;;;16.10;99.90;;;;;;5044878;28;20479;-71
2022/09/10 05:37:31;;;;;;;23.27;8.00;;;16.10;99.90;;;;;;5052755;28;20479;-69
2022/09/10 05:39:59;;;;;;;12.00;5.90;;;;;;;;;;5050839;28;20491;-64
2022/09/10 05:42:27;;;;;;;17.17;6.73;;;16.10;99.90;;;;;;5045675;28;20613;-71
2022/09/10 05:44:54;;;;;;;16.93;6.53;;;16.10;99.90;;;;;;5047210;28;20535;-70
2022/09/10 05:47:20;;;;;;;18.80;9.50;;;16.00;99.90;;;;;;5052262;28;20486;-69
2022/09/10 05:49:48;;;;;;;46.47;8.03;;;16.10;99.90;;;;;;5053275;28;20483;-70
2022/09/10 05:52:15;;;;;;;10.83;5.83;;;16.10;99.90;;;;;;5049842;28;20603;-72
2022/09/10 05:54:41;;;;;;;16.90;5.60;;;16.10;99.90;;;;;;5031916;28;20878;-71
2022/09/10 05:57:08;;;;;;;32.87;5.73;;;16.20;99.90;;;;;;5035972;28;20488;-65
2022/09/10 05:59:36;;;;;;;10.03;6.73;;;16.20;99.90;;;;;;5044217;28;20525;-68
2022/09/10 06:02:03;;;;;;;11.80;4.60;;;16.20;99.90;;;;;;5047118;28;20482;-71
2022/09/10 06:04:29;;;;;;;26.97;6.17;;;16.20;99.90;;;;;;5048755;28;20596;-70
2022/09/10 06:06:56;;;;;;;8.07;5.77;;;16.20;99.90;;;;;;5051814;28;20476;-67
2022/09/10 06:09:23;;;;;;;12.07;5.43;;;16.20;99.90;;;;;;5042100;28;20490;-70
2022/09/10 06:11:50;;;;;;;26.83;5.90;;;16.20;99.90;;;;;;5042269;28;21065;-71
2022/09/10 06:14:17;;;;;;;8.53;5.17;;;16.10;99.90;;;;;;5041662;28;20495;-69
2022/09/10 06:16:45;;;;;;;17.83;6.10;;;16.10;99.90;;;;;;5050034;28;20475;-66
2022/09/10 06:19:13;;;;;;;18.07;5.70;;;;;;;;;;5051470;28;20815;-67
2022/09/10 06:21:40;;;;;;;11.13;4.17;;;16.20;99.90;;;;;;5052404;28;20559;-65
2022/09/10 06:24:07;;;;;;;11.33;5.10;;;16.20;99.90;;;;;;5039173;28;20480;-68
2022/09/10 06:26:34;;;;;;;15.80;4.63;;;16.20;99.90;;;;;;5045652;28;20471;-67
2022/09/10 06:29:00;;;;;;;6.47;4.57;;;16.20;99.90;;;;;;5071270;28;20479;-68
2022/09/10 06:31:27;;;;;;;17.30;5.60;;;16.20;99.90;;;;;;5051352;28;20479;-68
2022/09/10 06:33:55;;;;;;;19.87;5.73;;;16.10;99.90;;;;;;5045524;28;20549;-65
2022/09/10 06:36:22;;;;;;;12.73;6.50;;;;;;;;;;5047717;28;20480;-65
2022/09/10 06:38:49;;;;;;;12.13;5.70;;;;;;;;;;5049872;28;20512;-66
2022/09/10 06:41:17;;;;;;;43.80;10.97;;;16.20;99.90;;;;;;5049418;28;20486;-68
2022/09/10 06:43:45;;;;;;;99.90;24.83;;;16.20;99.90;;;;;;5051403;28;20502;-70
2022/09/10 06:46:15;;;;;;;13.07;5.80;;;16.30;99.90;;;;;;5047574;28;20487;-65
2022/09/10 06:48:42;;;;;;;24.70;5.77;;;;;;;;;;5050957;28;20905;-65
2022/09/10 06:51:12;;;;;;;14.30;5.80;;;16.30;99.90;;;;;;5051654;28;21007;-69
2022/09/10 06:53:40;;;;;;;12.30;4.30;;;16.30;99.90;;;;;;5037114;28;21130;-69
2022/09/10 06:56:09;;;;;;;9.40;4.53;;;16.30;99.90;;;;;;5051424;28;20475;-68
2022/09/10 06:58:37;;;;;;;12.23;4.87;;;16.30;99.90;;;;;;5046109;28;20479;-67
2022/09/10 07:01:08;;;;;;;13.33;4.47;;;;;;;;;;5048583;28;20479;-68
2022/09/10 07:03:36;;;;;;;14.70;5.70;;;16.20;99.90;;;;;;5039567;28;20563;-69
2022/09/10 07:06:04;;;;;;;7.93;4.30;;;16.30;99.90;;;;;;5063317;28;20490;-64
2022/09/10 07:08:33;;;;;;;20.37;5.00;;;16.20;99.90;;;;;;5050402;28;20487;-65
2022/09/10 07:11:01;;;;;;;7.03;3.43;;;16.30;99.90;;;;;;5051134;28;20510;-65
2022/09/10 07:13:28;;;;;;;21.50;5.30;;;16.40;99.90;;;;;;5054630;28;20495;-63
2022/09/10 07:15:56;;;;;;;16.13;4.57;;;;;;;;;;5048407;28;20479;-65
2022/09/10 07:18:23;;;;;;;10.97;3.73;;;16.40;99.90;;;;;;5053511;28;20494;-67
2022/09/10 07:20:50;;;;;;;10.67;3.27;;;16.60;99.90;;;;;;5058264;28;21044;-67
2022/09/10 07:23:18;;;;;;;17.57;4.33;;;;;;;;;;5062021;28;20971;-64
2022/09/10 07:25:49;;;;;;;18.37;3.50;;;;;;;;;;5049956;28;20464;-68
2022/09/10 07:28:17;;;;;;;10.47;3.50;;;17.20;99.90;;;;;;5048628;28;20988;-70
2022/09/10 07:30:46;;;;;;;18.50;3.60;;;17.50;99.90;;;;;;5053573;28;21039;-67
2022/09/10 07:33:12;;;;;;;12.13;3.60;;;17.40;99.90;;;;;;5048155;28;20483;-67
2022/09/10 07:35:39;;;;;;;10.33;3.73;;;17.30;99.90;;;;;;5052672;28;20483;-67
2022/09/10 07:38:12;;;;;;;11.43;4.37;;;17.30;99.90;;;;;;5047509;28;20571;-68
2022/09/10 07:40:40;;;;;;;11.40;3.53;;;17.20;99.90;;;;;;5028782;28;21007;-67
2022/09/10 07:43:08;;;;;;;9.10;3.90;;;17.20;99.90;;;;;;5051205;28;20996;-66
2022/09/10 07:45:35;;;;;;;8.93;3.80;;;;;;;;;;5037347;28;20471;-64
2022/09/10 07:48:02;;;;;;;12.80;3.50;;;;;;;;;;5050569;28;20478;-69
2022/09/10 07:50:29;;;;;;;30.13;4.47;;;17.10;99.90;;;;;;5049549;28;21140;-68
2022/09/10 07:52:55;;;;;;;6.30;3.43;;;17.00;99.90;;;;;;5056235;28;20871;-64
2022/09/10 07:55:23;;;;;;;8.77;2.80;;;;;;;;;;5047910;28;20858;-62
2022/09/10 07:57:49;;;;;;;7.70;3.43;;;17.10;99.90;;;;;;5054521;28;20551;-66
2022/09/10 08:00:18;;;;;;;14.23;3.57;;;;;;;;;;5053838;28;20486;-68
2022/09/10 08:02:45;;;;;;;13.33;2.90;;;17.20;99.90;;;;;;5049101;28;20893;-65
2022/09/10 08:05:12;;;;;;;21.17;3.93;;;17.10;99.90;;;;;;5031628;28;20483;-68
2022/09/10 08:07:40;;;;;;;25.63;3.83;;;17.10;99.90;;;;;;5057045;28;20483;-66
2022/09/10 08:10:08;;;;;;;6.57;2.43;;;;;;;;;;5036505;28;20483;-66
2022/09/10 08:12:35;;;;;;;26.50;4.20;;;;;;;;;;5040477;28;21027;-61
2022/09/10 08:15:02;;;;;;;7.70;2.63;;;;;;;;;;5043002;28;20484;-65
2022/09/10 08:17:31;;;;;;;9.83;3.70;;;17.10;99.90;;;;;;5037771;28;20488;-66
2022/09/10 08:19:59;;;;;;;15.50;3.17;;;;;;;;;;5039029;28;20483;-64
2022/09/10 08:22:26;;;;;;;13.03;3.30;;;17.20;99.90;;;;;;5016034;28;20680;-68
2022/09/10 08:24:54;;;;;;;6.50;2.40;;;18.30;99.90;;;;;;5021450;28;20512;-63
2022/09/10 08:27:21;;;;;;;32.13;4.17;;;17.10;99.90;;;;;;5051670;28;20479;-66
2022/09/10 08:29:48;;;;;;;8.77;2.80;;;;;;;;;;5043706;28;20484;-71
2022/09/10 08:32:15;;;;;;;16.37;3.43;;;17.00;99.90;;;;;;5053889;28;20559;-69
2022/09/10 08:34:43;;;;;;;13.13;2.60;;;17.00;99.90;;;;;;5052428;28;20510;-75
2022/09/10 08:37:10;;;;;;;8.77;3.17;;;17.00;99.90;;;;;;5072898;28;21161;-65
2022/09/10 08:39:37;;;;;;;8.50;3.13;;;17.00;99.90;;;;;;5030267;28;20488;-69
2022/09/10 08:42:09;;;;;;;11.33;3.43;;;17.00;99.90;;;;;;5034550;28;21336;-73
2022/09/10 08:44:42;;;;;;;8.97;3.17;;;17.00;99.90;;;;;;5030643;28;20487;-71
2022/09/10 08:47:23;;;;;;;10.90;4.07;;;17.00;99.90;;;;;;5032312;28;20473;-68
2022/09/10 08:49:52;;;;;;;6.53;2.40;;;;;;;;;;5032914;28;20492;-74
2022/09/10 08:52:28;;;;;;;6.10;2.60;;;17.10;99.90;;;;;;5033077;28;20861;-71
2022/09/10 08:55:01;;;;;;;9.63;2.10;;;17.10;99.90;;;;;;5046202;28;20470;-64
2022/09/10 08:57:32;;;;;;;7.20;2.30;;;17.20;99.90;;;;;;5058297;28;20502;-70
2022/09/10 09:00:02;;;;;;;14.07;3.40;;;17.40;99.90;;;;;;5068787;28;20471;-70
2022/09/10 09:02:33;;;;;;;17.00;3.90;;;;;;;;;;5039837;28;20488;-71
2022/09/10 09:05:04;;;;;;;19.67;3.43;;;17.50;99.90;;;;;;5027729;28;20841;-69
2022/09/10 09:07:36;;;;;;;14.23;3.50;;;;;;;;;;5045776;28;20470;-71
2022/09/10 09:10:04;;;;;;;9.57;2.30;;;17.60;99.90;;;;;;5031076;28;20534;-68
2022/09/10 09:12:39;;;;;;;18.23;3.60;;;17.60;99.90;;;;;;5033224;28;20468;-69
2022/09/10 09:15:11;;;;;;;24.27;5.27;;;17.70;99.90;;;;;;5030567;28;20512;-68
2022/09/10 09:17:51;;;;;;;21.93;3.23;;;17.90;99.90;;;;;;5031759;28;20488;-66
2022/09/10 09:20:33;;;;;;;7.53;2.57;;;17.90;99.90;;;;;;5032561;28;20559;-70
2022/09/10 09:23:13;;;;;;;12.47;3.07;;;17.90;99.90;;;;;;5041823;28;20569;-72
2022/09/10 09:25:47;;;;;;;5.70;2.23;;;18.10;99.90;;;;;;5045724;28;20839;-73
2022/09/10 09:28:21;;;;;;;17.40;3.93;;;18.00;99.90;;;;;;5047556;28;20458;-68
2022/09/10 09:30:50;;;;;;;8.13;2.30;;;18.00;99.90;;;;;;5030140;28;20817;-67
2022/09/10 09:33:21;;;;;;;5.00;2.33;;;17.90;99.90;;;;;;5043122;28;20487;-70
2022/09/10 09:35:53;;;;;;;5.43;2.10;;;18.10;99.90;;;;;;5036887;28;20496;-70
2022/09/10 09:38:23;;;;;;;10.57;3.03;;;18.20;99.90;;;;;;5034833;28;20523;-66
2022/09/10 09:40:55;;;;;;;11.23;2.17;;;18.20;99.90;;;;;;5050806;28;20732;-68
2022/09/10 09:43:41;;;;;;;11.80;2.63;;;18.20;99.90;;;;;;5033281;28;20908;-72
2022/09/10 09:46:14;;;;;;;12.63;2.57;;;18.30;99.90;;;;;;5051354;28;20564;-71
2022/09/10 09:48:41;;;;;;;9.53;3.73;;;18.20;99.90;;;;;;5052227;28;20475;-70
2022/09/10 09:51:12;;;;;;;11.30;2.73;;;18.10;99.90;;;;;;5056006;28;20567;-67
2022/09/10 09:53:40;;;;;;;8.70;2.90;;;18.00;99.90;;;;;;5054859;28;20498;-62
2022/09/10 09:56:14;;;;;;;5.20;2.87;;;17.90;99.90;;;;;;5056140;28;20506;-72
2022/09/10 09:58:48;;;;;;;13.83;2.77;;;17.90;99.90;;;;;;5074040;28;20982;-71
2022/09/10 10:01:21;;;;;;;15.93;3.50;;;17.90;99.90;;;;;;5070603;28;20482;-71
2022/09/10 10:03:53;;;;;;;9.40;3.30;;;;;;;;;;5072023;28;20570;-70
2022/09/10 10:06:22;;;;;;;12.00;3.10;;;;;;;;;;5077391;28;20510;-72
2022/09/10 10:09:02;;;;;;;12.83;3.30;;;17.90;99.90;;;;;;5065232;28;20495;-69
2022/09/10 10:11:48;;;;;;;21.30;3.57;;;18.00;99.90;;;;;;5060873;28;20467;-70
2022/09/10 10:14:22;;;;;;;11.67;2.97;;;;;;;;;;5031390;28;20475;-70
2022/09/10 10:16:51;;;;;;;12.93;2.70;;;18.00;99.90;;;;;;5033843;28;20491;-72
2022/09/10 10:19:30;;;;;;;11.50;2.57;;;18.10;99.90;;;;;;5034321;28;20977;-72
2022/09/10 10:22:18;;;;;;;4.63;2.20;;;17.90;99.90;;;;;;5035973;28;20547;-73
2022/09/10 10:24:47;;;;;;;17.47;2.53;;;17.90;99.90;;;;;;5035325;28;20881;-70
2022/09/10 10:27:16;;;;;;;10.10;2.70;;;17.90;99.90;;;;;;5057792;28;20483;-67
2022/09/10 10:29:52;;;;;;;3.40;2.07;;;17.90;99.90;;;;;;5049853;28;20463;-66
2022/09/10 10:32:19;;;;;;;12.83;2.30;;;18.00;99.90;;;;;;5045148;28;20492;-72
2022/09/10 10:34:55;;;;;;;7.80;2.97;;;18.10;99.90;;;;;;5068300;28;20479;-68
2022/09/10 10:37:35;;;;;;;9.47;3.10;;;18.20;99.90;;;;;;5075102;28;20932;-74
2022/09/10 10:40:13;;;;;;;11.80;2.70;;;18.20;99.90;;;;;;5045709;28;20967;-75
2022/09/10 10:42:43;;;;;;;8.27;3.63;;;18.30;99.90;;;;;;5046902;28;20491;-68
2022/09/10 10:45:21;;;;;;;9.00;2.80;;;18.30;99.90;;;;;;5037999;28;20501;-70
2022/09/10 10:47:54;;;;;;;6.80;3.33;;;18.40;99.90;;;;;;5031269;28;20484;-69
2022/09/10 10:50:32;;;;;;;13.03;3.07;;;18.50;99.90;;;;;;5043996;28;20540;-72
2022/09/10 10:53:14;;;;;;;9.73;2.23;;;18.50;99.90;;;;;;5050685;28;21066;-64
2022/09/10 10:55:45;;;;;;;8.53;1.90;;;18.50;99.90;;;;;;5055300;28;20490;-70
2022/09/10 10:58:27;;;;;;;9.93;2.63;;;18.50;99.90;;;;;;5049051;28;20903;-66
2022/09/10 11:00:58;;;;;;;13.13;2.70;;;18.40;99.90;;;;;;5034357;28;20493;-64
2022/09/10 11:03:31;;;;;;;13.30;3.33;;;18.30;99.90;;;;;;5033585;28;20890;-67
2022/09/10 11:06:02;;;;;;;14.73;2.63;;;18.30;99.90;;;;;;5036604;28;20479;-68
2022/09/10 11:08:36;;;;;;;8.17;2.40;;;18.40;99.90;;;;;;5048389;28;20561;-71
2022/09/10 11:11:05;;;;;;;10.87;2.37;;;;;;;;;;5031224;28;20537;-68
2022/09/10 11:13:39;;;;;;;4.57;3.00;;;18.60;99.90;;;;;;5035936;28;20561;-67
2022/09/10 11:16:10;;;;;;;9.97;2.67;;;18.60;99.90;;;;;;5038695;28;20483;-66
2022/09/10 11:18:42;;;;;;;5.17;2.40;;;18.60;99.90;;;;;;5033910;28;20703;-68
2022/09/10 11:21:12;;;;;;;6.03;2.60;;;;;;;;;;5047525;28;20479;-66
2022/09/10 11:23:46;;;;;;;7.93;2.57;;;18.30;99.90;;;;;;5046298;28;20479;-73
2022/09/10 11:26:18;;;;;;;9.00;2.20;;;18.10;99.90;;;;;;5027967;28;20483;-73
2022/09/10 11:28:54;;;;;;;14.50;2.43;;;18.10;99.90;;;;;;5010005;28;20468;-71
2022/09/10 11:31:30;;;;;;;6.90;2.50;;;18.00;99.90;;;;;;5038904;28;20593;-74
2022/09/10 11:34:00;;;;;;;3.70;1.80;;;;;;;;;;5045156;28;21073;-66
2022/09/10 11:36:30;;;;;;;16.73;3.30;;;;;;;;;;5024707;28;20495;-74
2022/09/10 11:39:10;;;;;;;6.93;2.37;;;18.10;99.90;;;;;;5032852;28;20480;-69
2022/09/10 11:41:41;;;;;;;16.73;3.10;;;18.30;99.90;;;;;;5035802;28;20491;-68
2022/09/10 11:44:33;;;;;;;6.90;2.13;;;18.40;99.90;;;;;;5026912;28;20550;-71
2022/09/10 11:47:06;;;;;;;8.70;2.40;;;18.50;99.90;;;;;;5034802;28;20472;-67
2022/09/10 11:49:39;;;;;;;11.23;4.17;;;;;;;;;;5052853;28;21003;-72
2022/09/10 11:52:07;;;;;;;14.20;2.90;;;18.60;99.90;;;;;;5054555;28;20487;-72
2022/09/10 11:54:37;;;;;;;6.30;3.70;;;18.40;99.90;;;;;;5038784;28;20480;-73
2022/09/10 11:57:09;;;;;;;7.13;2.83;;;18.40;99.90;;;;;;5046791;28;20476;-70
2022/09/10 11:59:58;;;;;;;6.20;3.80;;;18.10;99.90;;;;;;5033364;28;21746;-73
2022/09/10 12:02:29;;;;;;;11.43;4.97;;;;;;;;;;5047180;28;20833;-70
2022/09/10 12:04:59;;;;;;;12.17;3.17;;;;;;;;;;5036436;28;20469;-68
2022/09/10 12:07:33;;;;;;;8.37;3.87;;;;;;;;;;5056351;28;20483;-73
2022/09/10 12:10:12;;;;;;;14.30;3.17;;;18.00;99.90;;;;;;5034983;28;20537;-74
2022/09/10 12:12:42;;;;;;;16.53;3.30;;;18.00;99.90;;;;;;5045007;28;20479;-72
2022/09/10 12:15:15;;;;;;;24.37;4.87;;;18.00;99.90;;;;;;5033164;28;20483;-69
2022/09/10 12:17:46;;;;;;;6.70;2.10;;;18.00;99.90;;;;;;5049081;28;21171;-72
2022/09/10 12:20:19;;;;;;;7.90;3.50;;;18.00;99.90;;;;;;5028613;28;20479;-71
2022/09/10 12:22:50;;;;;;;6.40;1.77;;;18.00;99.90;;;;;;5033612;28;20955;-67
2022/09/10 12:25:27;;;;;;;6.40;1.80;;;17.70;99.90;;;;;;5053606;28;20562;-68
2022/09/10 12:27:56;;;;;;;5.73;2.17;;;;;;;;;;5045231;28;20879;-63
2022/09/10 12:30:59;;;;;;;8.33;2.67;;;17.70;99.90;;;;;;5064867;28;20735;-66
2022/09/10 12:34:05;;;;;;;5.03;3.17;;;17.50;99.90;;;;;;5031193;28;20896;-65
2022/09/10 12:37:15;;;;;;;13.13;3.63;;;17.60;99.90;;;;;;5018428;28;20967;-66
2022/09/10 12:39:43;;;;;;;7.40;2.43;;;;;;;;;;5030035;28;20534;-65
2022/09/10 12:42:33;;;;;;;9.73;2.30;;;17.90;99.90;;;;;;5030072;28;20483;-65
2022/09/10 12:45:00;;;;;;;7.17;3.50;;;18.00;99.90;;;;;;5025796;28;20996;-69
2022/09/10 12:47:49;;;;;;;6.40;2.07;;;18.00;99.90;;;;;;5052670;28;20491;-68
2022/09/10 12:50:36;;;;;;;10.30;2.20;;;18.10;99.90;;;;;;5037618;28;21105;-72
2022/09/10 12:53:30;;;;;;;13.03;2.30;;;18.10;99.90;;;;;;5037923;28;21044;-71
2022/09/10 12:56:01;;;;;;;6.43;2.80;;;18.10;99.90;;;;;;5025950;28;20474;-73
2022/09/10 12:58:48;;;;;;;11.80;3.70;;;18.20;99.90;;;;;;5045646;28;20468;-77
2022/09/10 13:01:28;;;;;;;8.80;4.37;;;18.10;99.90;;;;;;5049592;28;20486;-76
2022/09/10 13:03:59;;;;;;;13.13;3.50;;;18.10;99.90;;;;;;5034417;28;20475;-70
2022/09/10 13:06:37;;;;;;;12.03;3.20;;;18.10;99.90;;;;;;5019748;28;20463;-69
2022/09/10 13:09:15;;;;;;;7.40;3.30;;;18.10;99.90;;;;;;5055722;28;20480;-65
2022/09/10 13:11:48;;;;;;;4.57;2.20;;;18.00;99.90;;;;;;5055212;28;20900;-73
2022/09/10 13:14:19;;;;;;;15.90;3.10;;;;;;;;;;5048139;28;20805;-63
2022/09/10 13:16:46;;;;;;;15.57;2.33;;;18.00;99.90;;;;;;5067337;28;20495;-65
2022/09/10 13:19:48;;;;;;;14.13;2.50;;;18.00;99.90;;;;;;5065619;28;20483;-62
2022/09/10 13:22:32;;;;;;;5.40;2.27;;;17.90;99.90;;;;;;5049659;28;20540;-65